Terminal Aerodrome Forecast
Issued by NWS

Home | Current Version | Previous Version | Text Only | Print | Product List | Glossary On
Versions: 1 2 3 4 5 6 7 8 9 10 11 12 13 14
000
FTUS46 KLOX 291100
TAFWJF
TAF
KWJF 291139Z 2912/3012 VRB03KT P6SM SKC
     FM291900 25010KT P6SM SKC
     FM292200 25018G25KT P6SM SKC
     FM300400 24010KT P6SM SKC=

USA.gov is the U.S. government's official web portal to all federal, state and local government web resources and services.